createdAt,value
2018-05-02T08:17:59.374Z,98313
2018-05-02T08:20:29.508Z,98305
2018-05-02T08:22:59.274Z,98304
2018-05-02T08:25:28.809Z,98308
2018-05-02T08:27:57.557Z,98298
2018-05-02T08:30:26.449Z,98296
2018-05-02T08:32:55.515Z,98297
2018-05-02T08:35:24.328Z,98289
2018-05-02T08:37:53.861Z,98285
2018-05-02T08:40:21.974Z,98279
2018-05-02T08:42:51.669Z,98275
2018-05-02T08:45:20.836Z,98272
2018-05-02T08:47:50.141Z,98267
2018-05-02T08:50:18.789Z,98270
2018-05-02T08:52:47.752Z,98266
2018-05-02T08:55:18.550Z,98266
2018-05-02T08:57:47.445Z,98263
2018-05-02T09:00:16.153Z,98259
2018-05-02T09:02:45.538Z,98256
2018-05-02T09:05:14.307Z,98254
2018-05-02T09:07:42.393Z,98246
2018-05-02T09:10:10.963Z,98247
2018-05-02T09:12:39.073Z,98242
2018-05-02T09:15:08.627Z,98241
2018-05-02T09:17:39.699Z,98236
2018-05-02T09:20:08.576Z,98229
2018-05-02T09:22:37.551Z,98225
2018-05-02T09:25:06.052Z,98222
2018-05-02T09:27:34.824Z,98222
2018-05-02T09:30:03.615Z,98218
2018-05-02T09:32:32.763Z,98208
2018-05-02T09:35:01.443Z,98213
2018-05-02T09:37:30.296Z,98207
2018-05-02T09:39:58.821Z,98202
2018-05-02T09:42:27.669Z,98203
2018-05-02T09:44:56.345Z,98192
2018-05-02T09:47:25.359Z,98193
2018-05-02T09:49:53.429Z,98191
2018-05-02T09:52:21.480Z,98189
2018-05-02T09:54:50.061Z,98187
2018-05-02T09:57:18.772Z,98186
2018-05-02T09:59:47.530Z,98186
2018-05-02T10:02:17.657Z,98170
2018-05-02T10:04:46.161Z,98168
2018-05-02T10:07:15.007Z,98185
2018-05-02T10:09:44.120Z,98181
2018-05-02T10:12:12.933Z,98177
2018-05-02T10:14:42.094Z,98175
2018-05-02T10:17:11.140Z,98178
2018-05-02T10:19:39.896Z,98172
2018-05-02T10:22:08.641Z,98167
2018-05-02T10:24:37.693Z,98171
2018-05-02T10:27:06.762Z,98180
2018-05-02T10:29:35.781Z,98171
2018-05-02T10:32:04.441Z,98174
2018-05-02T10:34:32.961Z,98159
2018-05-02T10:37:02.854Z,98154
2018-05-02T10:39:31.669Z,98154
2018-05-02T10:42:01.438Z,98152
2018-05-02T10:44:30.253Z,98147
2018-05-02T10:46:59.017Z,98144
2018-05-02T10:49:28.139Z,98153
2018-05-02T10:51:57.003Z,98148
2018-05-02T10:54:26.036Z,98145
2018-05-02T10:56:55.531Z,98139
2018-05-02T10:59:25.300Z,98127
2018-05-02T11:01:54.696Z,98129
2018-05-02T11:04:23.417Z,98142
2018-05-02T11:06:52.217Z,98141
2018-05-02T11:09:21.397Z,98143
2018-05-02T11:11:50.029Z,98141
2018-05-02T11:14:19.415Z,98140
2018-05-02T11:16:49.073Z,98139
2018-05-02T11:19:17.802Z,98122
2018-05-02T11:21:46.680Z,98126
2018-05-02T11:24:15.681Z,98130
2018-05-02T11:26:44.737Z,98120
2018-05-02T11:29:13.373Z,98118
2018-05-02T11:31:43.028Z,98111
2018-05-02T11:34:11.121Z,98099
2018-05-02T11:36:39.197Z,98097
2018-05-02T11:39:07.517Z,98094
2018-05-02T11:41:36.873Z,98091
2018-05-02T11:44:05.232Z,98077
2018-05-02T11:46:33.948Z,98086
2018-05-02T11:49:02.933Z,98078
2018-05-02T11:51:31.849Z,98079
2018-05-02T11:54:00.722Z,98076
2018-05-02T11:56:29.433Z,98073
2018-05-02T11:58:59.033Z,98068
2018-05-02T12:01:27.717Z,98068
2018-05-02T12:03:56.521Z,98073
2018-05-02T12:06:26.192Z,98073
2018-05-02T12:08:55.313Z,98060
2018-05-02T12:11:25.243Z,98054
2018-05-02T12:13:54.429Z,98056
2018-05-02T12:16:22.504Z,98058
2018-05-02T12:18:51.876Z,98061
2018-05-02T12:21:19.969Z,98058
2018-05-02T12:23:49.040Z,98057
2018-05-02T12:26:17.148Z,98047
2018-05-02T12:28:46.005Z,98047
2018-05-02T12:31:14.829Z,98041
2018-05-02T12:33:44.742Z,98046
2018-05-02T12:36:15.477Z,98047
2018-05-02T12:38:44.965Z,98049
2018-05-02T12:41:13.053Z,98042
2018-05-02T12:43:41.929Z,98039
2018-05-02T12:46:11.384Z,98043
2018-05-02T12:48:39.465Z,98040
2018-05-02T12:51:08.274Z,98036
2018-05-02T12:53:36.901Z,98029
2018-05-02T12:56:06.754Z,98029
2018-05-02T12:58:35.654Z,98026
2018-05-02T13:01:04.245Z,98021
2018-05-02T13:03:33.757Z,98021
2018-05-02T13:06:02.545Z,98021
2018-05-02T13:08:31.232Z,98021
2018-05-02T13:11:00.232Z,98017
2018-05-02T13:13:29.232Z,98024
2018-05-02T13:15:58.037Z,98012
2018-05-02T13:18:27.593Z,98010
2018-05-02T13:20:56.313Z,98008
2018-05-02T13:23:25.279Z,98010
2018-05-02T13:25:54.789Z,98006
2018-05-02T13:28:23.575Z,98009
2018-05-02T13:30:52.595Z,98006
2018-05-02T13:33:21.555Z,98008
2018-05-02T13:35:50.241Z,98007
2018-05-02T13:38:18.925Z,98001
2018-05-02T13:40:47.612Z,98003
2018-05-02T13:43:16.421Z,98000
2018-05-02T13:45:45.425Z,98000
2018-05-02T13:48:15.536Z,97993
2018-05-02T13:50:45.055Z,97993
2018-05-02T13:53:14.529Z,97994
2018-05-02T13:55:43.413Z,97989
2018-05-02T13:58:11.539Z,97984
2018-05-02T14:00:40.452Z,97988
2018-05-02T14:03:08.736Z,97984
2018-05-02T14:05:36.877Z,97979
2018-05-02T14:08:06.446Z,97980
2018-05-02T14:10:35.337Z,97982
2018-05-02T14:13:04.120Z,97981
2018-05-02T14:15:32.929Z,97976
2018-05-02T14:18:03.050Z,97973
2018-05-02T14:20:31.819Z,97973
2018-05-02T14:22:59.914Z,97972
2018-05-02T14:25:30.034Z,97974
2018-05-02T14:27:58.921Z,97971
2018-05-02T14:30:28.418Z,97965
2018-05-02T14:32:57.300Z,97965
2018-05-02T14:35:25.366Z,97962
2018-05-02T14:37:54.161Z,97971
2018-05-02T14:40:22.225Z,97969
2018-05-02T14:42:51.209Z,97966
2018-05-02T14:45:19.783Z,97963
2018-05-02T14:47:49.310Z,97962
2018-05-02T14:50:18.200Z,97963
2018-05-02T14:52:46.279Z,97963
2018-05-02T14:55:15.168Z,97960
2018-05-02T14:57:43.237Z,97960
2018-05-02T15:00:11.321Z,97961
2018-05-02T15:02:40.383Z,97957
2018-05-02T15:05:08.489Z,97961
2018-05-02T15:07:36.561Z,97973
2018-05-02T15:10:05.757Z,97966
2018-05-02T15:12:33.829Z,97970
2018-05-02T15:15:01.908Z,97970
2018-05-02T15:17:31.042Z,97976
2018-05-02T15:19:59.117Z,97973
2018-05-02T15:22:27.189Z,97975
2018-05-02T15:24:55.313Z,97976
2018-05-02T15:27:24.204Z,97977
2018-05-02T15:29:52.898Z,97975
2018-05-02T15:32:22.713Z,97975
2018-05-02T15:34:51.561Z,97975
2018-05-02T15:37:19.684Z,97984
2018-05-02T15:39:48.755Z,97981
2018-05-02T15:42:16.797Z,97975
2018-05-02T15:44:44.860Z,97981
2018-05-02T15:47:13.448Z,97980
2018-05-02T15:49:41.503Z,97975
2018-05-02T15:52:09.552Z,97979
2018-05-02T15:54:38.516Z,97978
2018-05-02T15:57:07.292Z,97984
2018-05-02T15:59:35.381Z,97982
2018-05-02T16:02:03.464Z,97984
2018-05-02T16:04:32.545Z,97983
2018-05-02T16:07:00.589Z,97982
2018-05-02T16:09:28.669Z,97985
2018-05-02T16:11:56.778Z,97981
2018-05-02T16:14:25.605Z,97984
2018-05-02T16:16:53.696Z,97987
2018-05-02T16:19:21.748Z,97991
2018-05-02T16:21:50.046Z,97993
2018-05-02T16:24:18.125Z,97994
2018-05-02T16:26:46.437Z,97989
2018-05-02T16:29:15.296Z,97989
2018-05-02T16:31:43.384Z,97993
2018-05-02T16:34:12.954Z,97988
2018-05-02T16:36:41.679Z,97991
2018-05-02T16:39:11.211Z,97989
2018-05-02T16:41:40.690Z,97991
2018-05-02T16:44:09.545Z,97994
2018-05-02T16:46:38.421Z,97994
2018-05-02T16:49:07.212Z,97994
2018-05-02T16:51:36.420Z,97992
2018-05-02T16:54:05.185Z,97992
2018-05-02T16:56:33.374Z,97990
2018-05-02T16:59:01.341Z,97985
2018-05-02T17:01:30.129Z,97990
2018-05-02T17:03:58.993Z,97991
2018-05-02T17:06:27.482Z,97994
2018-05-02T17:08:55.581Z,97994
2018-05-02T17:11:23.675Z,97998
2018-05-02T17:13:51.775Z,98003
2018-05-02T17:16:20.616Z,98002
2018-05-02T17:18:48.700Z,98004
2018-05-02T17:21:16.788Z,98001
2018-05-02T17:23:44.861Z,97998
2018-05-02T17:26:12.935Z,98000
2018-05-02T17:28:42.316Z,98003
2018-05-02T17:31:10.389Z,98003
2018-05-02T17:33:38.434Z,98005
2018-05-02T17:36:06.756Z,98006
2018-05-02T17:38:35.589Z,98006
2018-05-02T17:41:03.673Z,98007
2018-05-02T17:43:32.277Z,98010
2018-05-02T17:46:00.353Z,98012
2018-05-02T17:48:28.424Z,98014
2018-05-02T17:50:57.213Z,98021
2018-05-02T17:53:26.081Z,98027
2018-05-02T17:55:54.157Z,98029
2018-05-02T17:58:22.244Z,98028
2018-05-02T18:00:50.305Z,98032
2018-05-02T18:03:19.428Z,98035
2018-05-02T18:05:47.534Z,98038
2018-05-02T18:08:16.344Z,98043
2018-05-02T18:10:44.957Z,98039
2018-05-02T18:13:13.029Z,98044
2018-05-02T18:15:41.101Z,98049
2018-05-02T18:18:09.465Z,98050
2018-05-02T18:20:37.553Z,98060
2018-05-02T18:23:05.637Z,98064
2018-05-02T18:25:33.700Z,98059
2018-05-02T18:28:01.795Z,98066
2018-05-02T18:30:29.820Z,98066
2018-05-02T18:32:58.229Z,98068
2018-05-02T18:35:27.500Z,98071
2018-05-02T18:37:55.572Z,98073
2018-05-02T18:40:23.644Z,98074
2018-05-02T18:42:51.749Z,98076
2018-05-02T18:45:20.637Z,98075
2018-05-02T18:47:49.732Z,98076
2018-05-02T18:50:18.605Z,98072
2018-05-02T18:52:46.685Z,98073
2018-05-02T18:55:14.760Z,98073
2018-05-02T18:57:42.804Z,98078
2018-05-02T19:00:11.799Z,98079
2018-05-02T19:02:39.924Z,98083
2018-05-02T19:05:08.777Z,98082
2018-05-02T19:07:37.165Z,98083
2018-05-02T19:10:05.233Z,98084
2018-05-02T19:12:33.308Z,98086
2018-05-02T19:15:01.361Z,98095
2018-05-02T19:17:29.432Z,98095
2018-05-02T19:19:57.493Z,98092
2018-05-02T19:22:25.868Z,98092
2018-05-02T19:24:53.949Z,98095
2018-05-02T19:27:22.053Z,98099
2018-05-02T19:29:51.199Z,98100
2018-05-02T19:32:19.274Z,98101
2018-05-02T19:34:47.353Z,98104
2018-05-02T19:37:15.760Z,98108
2018-05-02T19:39:43.845Z,98113
2018-05-02T19:42:12.701Z,98117
2018-05-02T19:44:41.080Z,98119
2018-05-02T19:47:10.800Z,98123
2018-05-02T19:49:38.864Z,98127
2018-05-02T19:52:08.393Z,98130
2018-05-02T19:54:36.465Z,98129
2018-05-02T19:57:04.610Z,98130
2018-05-02T19:59:33.712Z,98138
2018-05-02T20:02:01.804Z,98138
2018-05-02T20:04:31.394Z,98135
2018-05-02T20:06:59.688Z,98134
2018-05-02T20:09:27.767Z,98129
2018-05-02T20:11:56.624Z,98128
2018-05-02T20:14:24.732Z,98127
2018-05-02T20:16:53.584Z,98130
2018-05-02T20:19:21.668Z,98131
2018-05-02T20:21:49.757Z,98121
2018-05-02T20:24:17.828Z,98120
2018-05-02T20:26:45.896Z,98119
2018-05-02T20:29:14.244Z,98117
2018-05-02T20:31:42.320Z,98118
2018-05-02T20:34:10.392Z,98124
2018-05-02T20:36:38.616Z,98116
2018-05-02T20:39:06.630Z,98113
2018-05-02T20:41:34.920Z,98106
2018-05-02T20:44:03.268Z,98114
2018-05-02T20:46:31.389Z,98117
2018-05-02T20:48:59.408Z,98120
2018-05-02T20:51:27.809Z,98128
2018-05-02T20:53:55.985Z,98132
2018-05-02T20:56:24.057Z,98135
2018-05-02T20:58:52.345Z,98132
2018-05-02T21:01:20.434Z,98139
2018-05-02T21:03:48.477Z,98140
2018-05-02T21:06:16.568Z,98136
2018-05-02T21:08:44.620Z,98135
2018-05-02T21:11:12.689Z,98141
2018-05-02T21:13:40.765Z,98143
2018-05-02T21:16:08.848Z,98145
2018-05-02T21:18:36.912Z,98146
2018-05-02T21:21:05.282Z,98141
2018-05-02T21:23:33.354Z,98141
2018-05-02T21:26:02.377Z,98141
2018-05-02T21:28:30.449Z,98143
2018-05-02T21:30:59.333Z,98142
2018-05-02T21:33:27.717Z,98135
2018-05-02T21:35:57.303Z,98136
2018-05-02T21:38:25.393Z,98141
2018-05-02T21:40:53.477Z,98139
2018-05-02T21:43:21.557Z,98143
2018-05-02T21:45:50.381Z,98145
2018-05-02T21:48:18.705Z,98143
2018-05-02T21:50:47.606Z,98150
2018-05-02T21:53:16.464Z,98148
2018-05-02T21:55:44.844Z,98148
2018-05-02T21:58:13.698Z,98151
2018-05-02T22:00:42.728Z,98146
2018-05-02T22:03:10.806Z,98153
2018-05-02T22:05:38.877Z,98154
2018-05-02T22:08:08.112Z,98156
2018-05-02T22:10:36.156Z,98160
2018-05-02T22:13:04.994Z,98166
2018-05-02T22:15:33.412Z,98166
2018-05-02T22:18:01.473Z,98165
2018-05-02T22:20:29.537Z,98164
2018-05-02T22:22:57.668Z,98169
2018-05-02T22:25:26.534Z,98171
2018-05-02T22:27:55.396Z,98178
2018-05-02T22:30:23.493Z,98177
2018-05-02T22:32:51.532Z,98182
2018-05-02T22:35:19.637Z,98184
2018-05-02T22:37:47.705Z,98182
2018-05-02T22:40:15.780Z,98181
2018-05-02T22:42:43.861Z,98180
2018-05-02T22:45:12.149Z,98180
2018-05-02T22:47:40.985Z,98177
2018-05-02T22:50:09.112Z,98176
2018-05-02T22:52:37.201Z,98179
2018-05-02T22:55:05.289Z,98176
2018-05-02T22:57:33.330Z,98177
2018-05-02T23:00:02.197Z,98178
2018-05-02T23:02:30.509Z,98184
2018-05-02T23:04:58.489Z,98186
2018-05-02T23:07:26.968Z,98184
2018-05-02T23:09:55.053Z,98183
2018-05-02T23:12:23.119Z,98183
2018-05-02T23:14:51.180Z,98184
2018-05-02T23:17:19.261Z,98181
2018-05-02T23:19:47.335Z,98178
2018-05-02T23:22:15.741Z,98178
2018-05-02T23:24:43.830Z,98183
2018-05-02T23:27:11.869Z,98183
2018-05-02T23:29:40.470Z,98182
2018-05-02T23:32:10.043Z,98182
2018-05-02T23:34:38.123Z,98185
2018-05-02T23:37:06.499Z,98183
2018-05-02T23:39:34.791Z,98188
2018-05-02T23:42:02.857Z,98185
2018-05-02T23:44:31.156Z,98179
2018-05-02T23:46:59.204Z,98179
2018-05-02T23:49:27.878Z,98184
2018-05-02T23:51:55.949Z,98185
2018-05-02T23:54:24.029Z,98189
2018-05-02T23:56:52.332Z,98184
2018-05-02T23:59:20.371Z,98181
